sensor_id;sensor_type;location;lat;lon;timestamp;P1;P2;P0
50587;PMS7003;70782;50.514;30.816;2023-11-18T00:00:52;20.40;18.90;11.30
50587;PMS7003;70782;50.514;30.816;2023-11-18T00:01:54;16.50;13.60;9.10
50587;PMS7003;70782;50.514;30.816;2023-11-18T00:02:57;17.40;14.10;9.20
50587;PMS7003;70782;50.514;30.816;2023-11-18T00:03:59;17.70;17.70;11.90
50587;PMS7003;70782;50.514;30.816;2023-11-18T00:05:03;19.36;18.27;11.00
50587;PMS7003;70782;50.514;30.816;2023-11-18T00:06:06;18.20;14.90;9.30
50587;PMS7003;70782;50.514;30.816;2023-11-18T00:07:09;16.80;14.30;10.10
50587;PMS7003;70782;50.514;30.816;2023-11-18T00:08:12;20.90;16.70;10.90
50587;PMS7003;70782;50.514;30.816;2023-11-18T00:09:14;15.50;13.90;9.40
50587;PMS7003;70782;50.514;30.816;2023-11-18T00:10:17;17.20;14.50;11.30
50587;PMS7003;70782;50.514;30.816;2023-11-18T00:11:20;16.40;15.10;10.80
50587;PMS7003;70782;50.514;30.816;2023-11-18T00:12:22;16.00;15.60;9.20
50587;PMS7003;70782;50.514;30.816;2023-11-18T00:13:25;20.20;16.00;10.80
50587;PMS7003;70782;50.514;30.816;2023-11-18T00:14:27;14.20;12.30;8.70
50587;PMS7003;70782;50.514;30.816;2023-11-18T00:15:30;16.70;15.00;9.50
50587;PMS7003;70782;50.514;30.816;2023-11-18T00:16:32;15.50;15.40;10.90
50587;PMS7003;70782;50.514;30.816;2023-11-18T00:17:35;18.30;15.50;11.90
50587;PMS7003;70782;50.514;30.816;2023-11-18T00:18:41;17.50;16.00;9.60
50587;PMS7003;70782;50.514;30.816;2023-11-18T00:19:44;15.90;13.50;9.60
50587;PMS7003;70782;50.514;30.816;2023-11-18T00:20:47;18.40;17.90;10.60
50587;PMS7003;70782;50.514;30.816;2023-11-18T00:21:49;16.60;16.60;10.10
50587;PMS7003;70782;50.514;30.816;2023-11-18T00:22:52;18.00;15.50;10.00
50587;PMS7003;70782;50.514;30.816;2023-11-18T00:23:54;14.30;14.30;9.00
50587;PMS7003;70782;50.514;30.816;2023-11-18T00:24:57;19.20;16.40;10.90
50587;PMS7003;70782;50.514;30.816;2023-11-18T00:25:59;20.00;17.40;11.40
50587;PMS7003;70782;50.514;30.816;2023-11-18T00:27:02;15.50;14.80;9.40
50587;PMS7003;70782;50.514;30.816;2023-11-18T00:28:05;16.27;16.27;10.45
50587;PMS7003;70782;50.514;30.816;2023-11-18T00:29:08;16.50;15.50;8.50
50587;PMS7003;70782;50.514;30.816;2023-11-18T00:30:12;19.20;17.80;11.50
50587;PMS7003;70782;50.514;30.816;2023-11-18T00:31:15;15.60;15.50;10.30
50587;PMS7003;70782;50.514;30.816;2023-11-18T00:32:18;19.60;17.50;11.50
50587;PMS7003;70782;50.514;30.816;2023-11-18T00:33:21;16.82;15.36;10.45
50587;PMS7003;70782;50.514;30.816;2023-11-18T00:34:23;16.00;15.50;10.70
50587;PMS7003;70782;50.514;30.816;2023-11-18T00:35:26;19.30;18.50;11.60
50587;PMS7003;70782;50.514;30.816;2023-11-18T00:36:29;16.73;15.91;9.64
50587;PMS7003;70782;50.514;30.816;2023-11-18T00:37:32;17.00;15.10;9.50
50587;PMS7003;70782;50.514;30.816;2023-11-18T00:38:35;20.90;19.30;10.90
50587;PMS7003;70782;50.514;30.816;2023-11-18T00:39:37;15.30;14.10;8.90
50587;PMS7003;70782;50.514;30.816;2023-11-18T00:40:40;16.60;14.30;9.10
50587;PMS7003;70782;50.514;30.816;2023-11-18T00:41:43;18.30;16.90;10.80
50587;PMS7003;70782;50.514;30.816;2023-11-18T00:42:46;19.30;17.30;10.50
50587;PMS7003;70782;50.514;30.816;2023-11-18T00:43:48;18.50;17.70;11.30
50587;PMS7003;70782;50.514;30.816;2023-11-18T00:44:51;16.20;15.20;8.50
50587;PMS7003;70782;50.514;30.816;2023-11-18T00:45:54;19.10;15.80;11.00
50587;PMS7003;70782;50.514;30.816;2023-11-18T00:46:56;16.70;15.50;10.70
50587;PMS7003;70782;50.514;30.816;2023-11-18T00:47:59;16.30;14.90;9.70
50587;PMS7003;70782;50.514;30.816;2023-11-18T00:49:02;18.20;17.10;10.20
50587;PMS7003;70782;50.514;30.816;2023-11-18T00:50:05;19.20;17.30;11.70
50587;PMS7003;70782;50.514;30.816;2023-11-18T00:51:10;18.50;18.00;11.80
50587;PMS7003;70782;50.514;30.816;2023-11-18T00:52:12;21.40;19.40;11.90
50587;PMS7003;70782;50.514;30.816;2023-11-18T00:53:15;17.10;13.80;9.30
50587;PMS7003;70782;50.514;30.816;2023-11-18T00:54:17;20.40;17.00;10.80
50587;PMS7003;70782;50.514;30.816;2023-11-18T00:55:20;20.40;18.20;11.60
50587;PMS7003;70782;50.514;30.816;2023-11-18T00:56:22;20.64;18.36;12.18
50587;PMS7003;70782;50.514;30.816;2023-11-18T00:57:25;16.30;16.30;11.10
50587;PMS7003;70782;50.514;30.816;2023-11-18T00:58:27;17.50;17.50;10.30
50587;PMS7003;70782;50.514;30.816;2023-11-18T00:59:30;18.10;16.20;10.10
50587;PMS7003;70782;50.514;30.816;2023-11-18T01:00:33;21.80;18.50;11.70
50587;PMS7003;70782;50.514;30.816;2023-11-18T01:01:37;21.30;17.60;11.00
50587;PMS7003;70782;50.514;30.816;2023-11-18T01:02:40;25.00;20.30;11.80
50587;PMS7003;70782;50.514;30.816;2023-11-18T01:03:44;25.60;21.80;14.60
50587;PMS7003;70782;50.514;30.816;2023-11-18T01:04:47;26.70;22.50;14.00
50587;PMS7003;70782;50.514;30.816;2023-11-18T01:05:49;21.91;19.64;13.64
50587;PMS7003;70782;50.514;30.816;2023-11-18T01:06:53;21.80;20.30;12.70
50587;PMS7003;70782;50.514;30.816;2023-11-18T01:07:55;22.00;22.00;14.50
50587;PMS7003;70782;50.514;30.816;2023-11-18T01:08:58;21.20;18.50;13.70
50587;PMS7003;70782;50.514;30.816;2023-11-18T01:10:00;27.50;25.10;15.40
50587;PMS7003;70782;50.514;30.816;2023-11-18T01:11:04;32.30;28.40;17.50
50587;PMS7003;70782;50.514;30.816;2023-11-18T01:12:07;36.50;32.40;19.30
50587;PMS7003;70782;50.514;30.816;2023-11-18T01:13:10;32.00;30.80;17.90
50587;PMS7003;70782;50.514;30.816;2023-11-18T01:14:13;29.60;27.30;16.00
50587;PMS7003;70782;50.514;30.816;2023-11-18T01:15:15;29.60;27.80;17.20
50587;PMS7003;70782;50.514;30.816;2023-11-18T01:16:18;30.80;27.50;16.90
50587;PMS7003;70782;50.514;30.816;2023-11-18T01:17:21;23.10;22.50;14.00
50587;PMS7003;70782;50.514;30.816;2023-11-18T01:18:23;26.80;24.20;17.20
50587;PMS7003;70782;50.514;30.816;2023-11-18T01:19:26;27.00;23.00;14.40
50587;PMS7003;70782;50.514;30.816;2023-11-18T01:20:30;18.30;17.60;12.30
50587;PMS7003;70782;50.514;30.816;2023-11-18T01:21:33;20.10;18.50;10.80
50587;PMS7003;70782;50.514;30.816;2023-11-18T01:22:36;16.50;14.90;12.20
50587;PMS7003;70782;50.514;30.816;2023-11-18T01:23:40;21.20;19.00;12.10
50587;PMS7003;70782;50.514;30.816;2023-11-18T01:24:42;16.90;14.90;9.60
50587;PMS7003;70782;50.514;30.816;2023-11-18T01:25:45;16.30;15.70;10.50
50587;PMS7003;70782;50.514;30.816;2023-11-18T01:26:47;15.20;15.20;9.90
50587;PMS7003;70782;50.514;30.816;2023-11-18T01:27:50;19.50;16.60;8.70
50587;PMS7003;70782;50.514;30.816;2023-11-18T01:28:53;17.90;16.90;12.30
50587;PMS7003;70782;50.514;30.816;2023-11-18T01:29:56;17.55;15.82;11.09
50587;PMS7003;70782;50.514;30.816;2023-11-18T01:30:58;16.82;14.64;9.55
50587;PMS7003;70782;50.514;30.816;2023-11-18T01:32:01;17.70;14.50;10.50
50587;PMS7003;70782;50.514;30.816;2023-11-18T01:33:04;15.18;14.45;9.82
50587;PMS7003;70782;50.514;30.816;2023-11-18T01:34:07;17.55;15.73;9.64
50587;PMS7003;70782;50.514;30.816;2023-11-18T01:35:09;23.50;18.60;11.50
50587;PMS7003;70782;50.514;30.816;2023-11-18T01:36:13;20.30;18.20;12.20
50587;PMS7003;70782;50.514;30.816;2023-11-18T01:37:15;19.80;17.60;10.10
50587;PMS7003;70782;50.514;30.816;2023-11-18T01:38:18;30.73;26.45;15.36
50587;PMS7003;70782;50.514;30.816;2023-11-18T01:39:21;22.80;22.20;12.70
50587;PMS7003;70782;50.514;30.816;2023-11-18T01:40:24;26.20;24.00;14.40
50587;PMS7003;70782;50.514;30.816;2023-11-18T01:41:26;24.30;22.30;14.70
50587;PMS7003;70782;50.514;30.816;2023-11-18T01:42:29;25.40;20.90;12.50
50587;PMS7003;70782;50.514;30.816;2023-11-18T01:43:31;23.00;21.30;12.60
50587;PMS7003;70782;50.514;30.816;2023-11-18T01:44:34;30.36;27.55;17.73
50587;PMS7003;70782;50.514;30.816;2023-11-18T01:45:37;31.70;25.90;17.80
50587;PMS7003;70782;50.514;30.816;2023-11-18T01:46:40;27.36;25.09;16.82
50587;PMS7003;70782;50.514;30.816;2023-11-18T01:47:43;30.60;28.30;18.00
50587;PMS7003;70782;50.514;30.816;2023-11-18T01:48:47;24.60;23.50;13.10
50587;PMS7003;70782;50.514;30.816;2023-11-18T01:49:50;34.00;27.90;15.80
50587;PMS7003;70782;50.514;30.816;2023-11-18T01:50:53;24.60;20.30;11.40
50587;PMS7003;70782;50.514;30.816;2023-11-18T01:51:58;25.10;22.70;12.80
50587;PMS7003;70782;50.514;30.816;2023-11-18T01:53:00;22.10;20.70;13.40
50587;PMS7003;70782;50.514;30.816;2023-11-18T01:54:03;19.30;17.90;12.00
50587;PMS7003;70782;50.514;30.816;2023-11-18T01:55:07;20.60;18.50;11.00
50587;PMS7003;70782;50.514;30.816;2023-11-18T01:56:11;18.30;16.00;10.90
50587;PMS7003;70782;50.514;30.816;2023-11-18T01:57:14;16.27;15.55;9.73
50587;PMS7003;70782;50.514;30.816;2023-11-18T01:58:16;15.73;14.73;9.64
50587;PMS7003;70782;50.514;30.816;2023-11-18T01:59:19;18.00;14.80;10.90
50587;PMS7003;70782;50.514;30.816;2023-11-18T02:00:23;24.30;21.10;13.00
50587;PMS7003;70782;50.514;30.816;2023-11-18T02:01:26;29.60;27.70;17.00
50587;PMS7003;70782;50.514;30.816;2023-11-18T02:02:30;32.20;30.20;17.30
50587;PMS7003;70782;50.514;30.816;2023-11-18T02:03:33;21.80;18.10;13.60
50587;PMS7003;70782;50.514;30.816;2023-11-18T02:04:36;32.10;29.80;16.30
50587;PMS7003;70782;50.514;30.816;2023-11-18T02:05:39;36.27;31.00;18.09
50587;PMS7003;70782;50.514;30.816;2023-11-18T02:06:42;55.50;43.90;24.20
50587;PMS7003;70782;50.514;30.816;2023-11-18T02:07:45;71.91;55.64;29.73
50587;PMS7003;70782;50.514;30.816;2023-11-18T02:08:48;71.00;54.40;30.10
50587;PMS7003;70782;50.514;30.816;2023-11-18T02:09:50;65.40;47.50;26.90
50587;PMS7003;70782;50.514;30.816;2023-11-18T02:13:23;88.30;65.60;35.70
50587;PMS7003;70782;50.514;30.816;2023-11-18T02:14:28;83.70;58.60;32.70
50587;PMS7003;70782;50.514;30.816;2023-11-18T02:15:31;78.70;57.70;32.30
50587;PMS7003;70782;50.514;30.816;2023-11-18T02:16:39;67.10;52.50;27.70
50587;PMS7003;70782;50.514;30.816;2023-11-18T02:17:42;74.50;56.50;29.10
50587;PMS7003;70782;50.514;30.816;2023-11-18T02:18:46;71.40;54.80;32.60
50587;PMS7003;70782;50.514;30.816;2023-11-18T02:20:08;79.10;61.10;35.70
50587;PMS7003;70782;50.514;30.816;2023-11-18T02:21:13;67.00;52.80;31.20
50587;PMS7003;70782;50.514;30.816;2023-11-18T02:22:16;54.90;43.40;25.30
50587;PMS7003;70782;50.514;30.816;2023-11-18T02:23:19;47.82;37.64;24.00
50587;PMS7003;70782;50.514;30.816;2023-11-18T02:24:25;44.82;39.00;23.45
50587;PMS7003;70782;50.514;30.816;2023-11-18T02:25:33;37.60;34.40;21.20
50587;PMS7003;70782;50.514;30.816;2023-11-18T02:26:36;40.20;35.50;21.50
50587;PMS7003;70782;50.514;30.816;2023-11-18T02:27:38;33.40;30.40;15.90
50587;PMS7003;70782;50.514;30.816;2023-11-18T02:28:41;40.00;35.10;20.90
50587;PMS7003;70782;50.514;30.816;2023-11-18T02:29:44;60.00;45.60;27.00
50587;PMS7003;70782;50.514;30.816;2023-11-18T02:30:49;73.80;56.70;35.10
50587;PMS7003;70782;50.514;30.816;2023-11-18T02:31:53;88.30;68.00;40.60
50587;PMS7003;70782;50.514;30.816;2023-11-18T02:33:04;103.00;86.80;48.00
50587;PMS7003;70782;50.514;30.816;2023-11-18T02:34:12;97.70;81.70;45.80
50587;PMS7003;70782;50.514;30.816;2023-11-18T02:35:17;79.80;62.30;35.60
50587;PMS7003;70782;50.514;30.816;2023-11-18T02:36:31;61.40;46.10;27.20
50587;PMS7003;70782;50.514;30.816;2023-11-18T02:37:39;70.80;54.90;33.20
50587;PMS7003;70782;50.514;30.816;2023-11-18T02:38:44;15.00;9.70;6.50
50587;PMS7003;70782;50.514;30.816;2023-11-18T02:39:50;97.20;84.30;49.40
50587;PMS7003;70782;50.514;30.816;2023-11-18T02:40:55;103.60;93.20;50.80
50587;PMS7003;70782;50.514;30.816;2023-11-18T02:42:01;92.20;79.80;44.90
50587;PMS7003;70782;50.514;30.816;2023-11-18T02:43:04;72.70;57.90;35.50
50587;PMS7003;70782;50.514;30.816;2023-11-18T02:44:27;73.90;58.80;37.20
50587;PMS7003;70782;50.514;30.816;2023-11-18T02:45:32;83.70;65.70;39.80
50587;PMS7003;70782;50.514;30.816;2023-11-18T02:46:36;98.10;82.20;47.70
50587;PMS7003;70782;50.514;30.816;2023-11-18T02:47:39;102.20;92.00;53.00
50587;PMS7003;70782;50.514;30.816;2023-11-18T02:48:42;79.90;61.80;37.70
50587;PMS7003;70782;50.514;30.816;2023-11-18T02:49:45;67.10;53.60;33.60
50587;PMS7003;70782;50.514;30.816;2023-11-18T02:50:51;60.90;47.90;29.50
50587;PMS7003;70782;50.514;30.816;2023-11-18T02:51:55;47.60;39.50;24.20
50587;PMS7003;70782;50.514;30.816;2023-11-18T02:52:58;42.10;34.40;19.90
50587;PMS7003;70782;50.514;30.816;2023-11-18T02:54:00;31.60;26.40;14.00
50587;PMS7003;70782;50.514;30.816;2023-11-18T02:55:04;25.90;21.90;14.30
50587;PMS7003;70782;50.514;30.816;2023-11-18T02:56:08;31.80;28.00;17.00
50587;PMS7003;70782;50.514;30.816;2023-11-18T02:57:10;33.60;28.20;18.20
50587;PMS7003;70782;50.514;30.816;2023-11-18T02:58:13;32.30;26.20;14.30
50587;PMS7003;70782;50.514;30.816;2023-11-18T02:59:16;27.50;21.90;14.10
50587;PMS7003;70782;50.514;30.816;2023-11-18T03:00:19;22.20;20.60;13.10
50587;PMS7003;70782;50.514;30.816;2023-11-18T03:01:21;22.80;22.20;12.90
50587;PMS7003;70782;50.514;30.816;2023-11-18T03:02:24;21.00;18.20;12.90
50587;PMS7003;70782;50.514;30.816;2023-11-18T03:03:26;19.80;17.70;12.30
50587;PMS7003;70782;50.514;30.816;2023-11-18T03:04:29;21.00;18.10;10.80
50587;PMS7003;70782;50.514;30.816;2023-11-18T03:05:32;19.60;18.80;11.50
50587;PMS7003;70782;50.514;30.816;2023-11-18T03:06:36;21.20;18.60;11.30
50587;PMS7003;70782;50.514;30.816;2023-11-18T03:07:38;18.20;17.70;10.50
50587;PMS7003;70782;50.514;30.816;2023-11-18T03:08:42;20.00;17.50;11.80
50587;PMS7003;70782;50.514;30.816;2023-11-18T03:09:45;16.80;15.30;10.50
50587;PMS7003;70782;50.514;30.816;2023-11-18T03:10:48;23.00;18.30;12.20
50587;PMS7003;70782;50.514;30.816;2023-11-18T03:11:50;17.50;16.50;9.90
50587;PMS7003;70782;50.514;30.816;2023-11-18T03:12:53;17.70;16.80;10.60
50587;PMS7003;70782;50.514;30.816;2023-11-18T03:13:56;19.90;18.40;10.50
50587;PMS7003;70782;50.514;30.816;2023-11-18T03:14:59;18.50;16.80;11.10
50587;PMS7003;70782;50.514;30.816;2023-11-18T03:16:05;18.18;16.73;11.73
50587;PMS7003;70782;50.514;30.816;2023-11-18T03:17:09;17.00;16.40;11.00
50587;PMS7003;70782;50.514;30.816;2023-11-18T03:18:12;18.70;16.40;10.90
50587;PMS7003;70782;50.514;30.816;2023-11-18T03:19:14;21.70;19.00;11.80
50587;PMS7003;70782;50.514;30.816;2023-11-18T03:20:18;19.91;16.73;11.45
50587;PMS7003;70782;50.514;30.816;2023-11-18T03:21:21;18.70;17.30;9.40
50587;PMS7003;70782;50.514;30.816;2023-11-18T03:22:24;21.45;19.09;11.36
50587;PMS7003;70782;50.514;30.816;2023-11-18T03:23:26;18.10;14.30;10.10
50587;PMS7003;70782;50.514;30.816;2023-11-18T03:24:29;22.00;18.50;11.70
50587;PMS7003;70782;50.514;30.816;2023-11-18T03:25:33;16.70;14.00;9.90
50587;PMS7003;70782;50.514;30.816;2023-11-18T03:26:36;13.82;13.64;9.73
50587;PMS7003;70782;50.514;30.816;2023-11-18T03:27:38;19.00;16.60;10.40
50587;PMS7003;70782;50.514;30.816;2023-11-18T03:28:41;18.45;16.82;9.45
50587;PMS7003;70782;50.514;30.816;2023-11-18T03:29:44;20.90;17.60;11.30
50587;PMS7003;70782;50.514;30.816;2023-11-18T03:30:46;14.20;14.20;9.20
50587;PMS7003;70782;50.514;30.816;2023-11-18T03:31:49;20.60;18.00;11.30
50587;PMS7003;70782;50.514;30.816;2023-11-18T03:32:52;19.80;17.00;9.90
50587;PMS7003;70782;50.514;30.816;2023-11-18T03:33:54;16.30;14.10;8.80
50587;PMS7003;70782;50.514;30.816;2023-11-18T03:34:57;16.90;15.30;9.80
50587;PMS7003;70782;50.514;30.816;2023-11-18T03:35:59;19.90;14.70;8.70
50587;PMS7003;70782;50.514;30.816;2023-11-18T03:37:02;16.20;13.80;9.40
50587;PMS7003;70782;50.514;30.816;2023-11-18T03:38:04;15.30;14.20;8.80
50587;PMS7003;70782;50.514;30.816;2023-11-18T03:39:07;18.60;16.00;10.90
50587;PMS7003;70782;50.514;30.816;2023-11-18T03:40:11;18.80;17.80;10.60
50587;PMS7003;70782;50.514;30.816;2023-11-18T03:41:15;15.70;15.10;9.00
50587;PMS7003;70782;50.514;30.816;2023-11-18T03:42:17;18.30;15.60;10.30
50587;PMS7003;70782;50.514;30.816;2023-11-18T03:43:20;17.30;15.60;9.40
50587;PMS7003;70782;50.514;30.816;2023-11-18T03:44:23;10.40;10.40;8.00
50587;PMS7003;70782;50.514;30.816;2023-11-18T03:45:25;20.09;15.64;10.82
50587;PMS7003;70782;50.514;30.816;2023-11-18T03:46:28;18.20;17.10;10.70
50587;PMS7003;70782;50.514;30.816;2023-11-18T03:47:30;17.30;15.50;10.90
50587;PMS7003;70782;50.514;30.816;2023-11-18T03:48:34;20.30;16.70;10.60
50587;PMS7003;70782;50.514;30.816;2023-11-18T03:49:36;19.73;17.55;11.18
50587;PMS7003;70782;50.514;30.816;2023-11-18T03:50:39;20.80;18.20;11.60
50587;PMS7003;70782;50.514;30.816;2023-11-18T03:51:42;22.36;21.00;11.82
50587;PMS7003;70782;50.514;30.816;2023-11-18T03:52:45;17.30;15.60;10.50
50587;PMS7003;70782;50.514;30.816;2023-11-18T03:53:47;19.30;17.50;9.80
50587;PMS7003;70782;50.514;30.816;2023-11-18T03:54:50;21.50;19.20;12.10
50587;PMS7003;70782;50.514;30.816;2023-11-18T03:55:53;14.90;14.80;9.30
50587;PMS7003;70782;50.514;30.816;2023-11-18T03:56:55;18.10;17.90;9.50
50587;PMS7003;70782;50.514;30.816;2023-11-18T03:57:58;20.90;17.70;11.70
50587;PMS7003;70782;50.514;30.816;2023-11-18T03:59:00;21.00;17.50;12.20
50587;PMS7003;70782;50.514;30.816;2023-11-18T04:00:04;16.64;15.55;11.18
50587;PMS7003;70782;50.514;30.816;2023-11-18T04:02:27;21.10;19.00;11.90
50587;PMS7003;70782;50.514;30.816;2023-11-18T04:03:30;20.80;18.80;10.80
50587;PMS7003;70782;50.514;30.816;2023-11-18T04:04:32;20.30;18.90;12.30
50587;PMS7003;70782;50.514;30.816;2023-11-18T04:05:35;19.70;18.50;11.90
50587;PMS7003;70782;50.514;30.816;2023-11-18T04:06:38;21.00;18.50;11.30
50587;PMS7003;70782;50.514;30.816;2023-11-18T04:07:40;16.80;15.10;8.10
50587;PMS7003;70782;50.514;30.816;2023-11-18T04:09:53;24.70;22.00;14.70
50587;PMS7003;70782;50.514;30.816;2023-11-18T04:10:56;27.00;25.30;14.10
50587;PMS7003;70782;50.514;30.816;2023-11-18T04:11:58;27.50;24.40;14.00
50587;PMS7003;70782;50.514;30.816;2023-11-18T04:13:01;33.10;26.90;14.50
50587;PMS7003;70782;50.514;30.816;2023-11-18T04:14:04;30.40;26.70;16.80
50587;PMS7003;70782;50.514;30.816;2023-11-18T04:15:07;29.09;24.36;15.82
50587;PMS7003;70782;50.514;30.816;2023-11-18T04:16:16;35.60;30.20;16.90
50587;PMS7003;70782;50.514;30.816;2023-11-18T04:17:34;26.40;22.70;14.20
50587;PMS7003;70782;50.514;30.816;2023-11-18T04:18:36;21.36;16.82;13.09
50587;PMS7003;70782;50.514;30.816;2023-11-18T04:19:39;23.90;19.20;12.00
50587;PMS7003;70782;50.514;30.816;2023-11-18T04:20:42;26.30;23.00;13.10
50587;PMS7003;70782;50.514;30.816;2023-11-18T04:21:46;33.90;30.50;16.80
50587;PMS7003;70782;50.514;30.816;2023-11-18T04:22:49;39.20;32.10;19.50
50587;PMS7003;70782;50.514;30.816;2023-11-18T04:23:51;42.80;35.70;18.70
50587;PMS7003;70782;50.514;30.816;2023-11-18T04:24:54;39.40;36.10;16.60
50587;PMS7003;70782;50.514;30.816;2023-11-18T04:25:57;36.50;31.70;18.20
50587;PMS7003;70782;50.514;30.816;2023-11-18T04:26:59;30.73;27.64;15.91
50587;PMS7003;70782;50.514;30.816;2023-11-18T04:28:02;27.90;26.00;17.30
50587;PMS7003;70782;50.514;30.816;2023-11-18T04:29:05;26.60;22.70;16.00
50587;PMS7003;70782;50.514;30.816;2023-11-18T04:30:08;29.50;25.70;15.90
50587;PMS7003;70782;50.514;30.816;2023-11-18T04:31:11;26.90;20.70;13.10
50587;PMS7003;70782;50.514;30.816;2023-11-18T04:32:14;30.70;24.90;14.10
50587;PMS7003;70782;50.514;30.816;2023-11-18T04:33:16;27.70;23.30;12.90
50587;PMS7003;70782;50.514;30.816;2023-11-18T04:34:19;25.60;23.50;14.20
50587;PMS7003;70782;50.514;30.816;2023-11-18T04:35:22;25.30;21.50;12.90
50587;PMS7003;70782;50.514;30.816;2023-11-18T04:36:25;27.36;21.36;13.27
50587;PMS7003;70782;50.514;30.816;2023-11-18T04:37:27;30.90;24.40;16.50
50587;PMS7003;70782;50.514;30.816;2023-11-18T04:38:29;29.50;25.40;15.70
50587;PMS7003;70782;50.514;30.816;2023-11-18T04:39:32;29.20;26.30;16.30
50587;PMS7003;70782;50.514;30.816;2023-11-18T04:40:35;30.00;26.00;14.18
50587;PMS7003;70782;50.514;30.816;2023-11-18T04:41:38;31.90;27.00;14.70
50587;PMS7003;70782;50.514;30.816;2023-11-18T04:42:41;26.00;23.90;14.60
50587;PMS7003;70782;50.514;30.816;2023-11-18T04:43:45;13.40;11.20;10.20
50587;PMS7003;70782;50.514;30.816;2023-11-18T04:44:47;29.60;24.30;14.70
50587;PMS7003;70782;50.514;30.816;2023-11-18T04:45:50;24.30;22.60;14.10
50587;PMS7003;70782;50.514;30.816;2023-11-18T04:46:53;23.64;23.64;14.64
50587;PMS7003;70782;50.514;30.816;2023-11-18T04:47:56;23.00;22.50;14.10
50587;PMS7003;70782;50.514;30.816;2023-11-18T04:48:58;28.90;24.60;14.80
50587;PMS7003;70782;50.514;30.816;2023-11-18T04:50:01;26.09;23.55;14.82
50587;PMS7003;70782;50.514;30.816;2023-11-18T04:51:04;25.80;21.60;14.30
50587;PMS7003;70782;50.514;30.816;2023-11-18T04:52:07;29.00;24.90;16.80
50587;PMS7003;70782;50.514;30.816;2023-11-18T04:53:09;25.70;24.20;15.40
50587;PMS7003;70782;50.514;30.816;2023-11-18T04:54:12;22.70;21.40;12.50
50587;PMS7003;70782;50.514;30.816;2023-11-18T04:55:14;25.50;24.00;12.10
50587;PMS7003;70782;50.514;30.816;2023-11-18T04:56:17;30.10;26.50;17.60
50587;PMS7003;70782;50.514;30.816;2023-11-18T04:57:19;28.00;25.60;15.90
50587;PMS7003;70782;50.514;30.816;2023-11-18T04:58:22;30.80;26.80;17.00
50587;PMS7003;70782;50.514;30.816;2023-11-18T04:59:24;33.30;28.10;16.30
50587;PMS7003;70782;50.514;30.816;2023-11-18T05:00:26;29.20;26.20;15.60
50587;PMS7003;70782;50.514;30.816;2023-11-18T05:01:29;27.50;23.60;16.50
50587;PMS7003;70782;50.514;30.816;2023-11-18T05:02:31;27.60;24.40;16.10
50587;PMS7003;70782;50.514;30.816;2023-11-18T05:03:34;34.10;31.20;18.40
50587;PMS7003;70782;50.514;30.816;2023-11-18T05:04:37;47.18;39.36;24.09
50587;PMS7003;70782;50.514;30.816;2023-11-18T05:05:39;50.10;41.10;24.20
50587;PMS7003;70782;50.514;30.816;2023-11-18T05:06:42;45.00;36.91;22.18
50587;PMS7003;70782;50.514;30.816;2023-11-18T05:07:45;39.00;34.10;20.40
50587;PMS7003;70782;50.514;30.816;2023-11-18T05:08:47;35.70;30.10;17.90
50587;PMS7003;70782;50.514;30.816;2023-11-18T05:09:50;32.80;30.30;17.60
50587;PMS7003;70782;50.514;30.816;2023-11-18T05:10:53;35.90;29.60;17.70
50587;PMS7003;70782;50.514;30.816;2023-11-18T05:11:57;32.20;29.80;17.90
50587;PMS7003;70782;50.514;30.816;2023-11-18T05:13:00;30.10;27.70;18.10
50587;PMS7003;70782;50.514;30.816;2023-11-18T05:14:03;26.45;24.82;16.55
50587;PMS7003;70782;50.514;30.816;2023-11-18T05:15:06;26.73;22.64;13.45
50587;PMS7003;70782;50.514;30.816;2023-11-18T05:16:09;27.50;21.90;12.70
50587;PMS7003;70782;50.514;30.816;2023-11-18T05:17:12;29.20;25.20;12.10
50587;PMS7003;70782;50.514;30.816;2023-11-18T05:18:15;38.80;30.40;18.70
50587;PMS7003;70782;50.514;30.816;2023-11-18T05:19:18;37.30;32.50;19.20
50587;PMS7003;70782;50.514;30.816;2023-11-18T05:20:21;36.90;31.90;19.80
50587;PMS7003;70782;50.514;30.816;2023-11-18T05:21:23;25.10;22.30;12.30
50587;PMS7003;70782;50.514;30.816;2023-11-18T05:22:26;28.20;24.60;15.00
50587;PMS7003;70782;50.514;30.816;2023-11-18T05:23:28;22.70;19.40;9.20
50587;PMS7003;70782;50.514;30.816;2023-11-18T05:24:31;29.20;26.10;14.90
50587;PMS7003;70782;50.514;30.816;2023-11-18T05:25:33;31.80;27.80;15.60
50587;PMS7003;70782;50.514;30.816;2023-11-18T05:26:36;31.10;27.80;17.10
50587;PMS7003;70782;50.514;30.816;2023-11-18T05:27:39;27.40;24.30;14.10
50587;PMS7003;70782;50.514;30.816;2023-11-18T05:28:41;28.70;25.30;15.20
50587;PMS7003;70782;50.514;30.816;2023-11-18T05:29:44;26.30;23.30;15.20
50587;PMS7003;70782;50.514;30.816;2023-11-18T05:30:46;26.20;23.60;14.00
50587;PMS7003;70782;50.514;30.816;2023-11-18T05:31:50;24.20;22.20;13.10
50587;PMS7003;70782;50.514;30.816;2023-11-18T05:32:53;30.70;26.30;15.60
50587;PMS7003;70782;50.514;30.816;2023-11-18T05:33:55;29.40;24.60;12.90
50587;PMS7003;70782;50.514;30.816;2023-11-18T05:34:58;31.30;27.90;16.90
50587;PMS7003;70782;50.514;30.816;2023-11-18T05:36:01;31.10;27.70;16.80
50587;PMS7003;70782;50.514;30.816;2023-11-18T05:37:04;25.18;23.91;16.55
50587;PMS7003;70782;50.514;30.816;2023-11-18T05:38:06;21.20;19.60;13.20
50587;PMS7003;70782;50.514;30.816;2023-11-18T05:39:09;24.90;23.00;15.10
50587;PMS7003;70782;50.514;30.816;2023-11-18T05:40:13;31.70;26.10;16.40
50587;PMS7003;70782;50.514;30.816;2023-11-18T05:41:16;37.60;32.60;18.40
50587;PMS7003;70782;50.514;30.816;2023-11-18T05:42:18;40.00;33.50;21.30
50587;PMS7003;70782;50.514;30.816;2023-11-18T05:44:39;37.10;33.10;21.50
50587;PMS7003;70782;50.514;30.816;2023-11-18T05:45:41;28.60;22.60;17.20
50587;PMS7003;70782;50.514;30.816;2023-11-18T05:46:45;28.50;23.10;15.80
50587;PMS7003;70782;50.514;30.816;2023-11-18T05:47:47;36.60;31.10;18.30
50587;PMS7003;70782;50.514;30.816;2023-11-18T05:48:50;35.00;30.40;17.70
50587;PMS7003;70782;50.514;30.816;2023-11-18T05:49:53;33.80;29.10;17.60
50587;PMS7003;70782;50.514;30.816;2023-11-18T05:50:56;38.27;35.45;20.45
50587;PMS7003;70782;50.514;30.816;2023-11-18T05:52:16;38.10;33.80;20.90
50587;PMS7003;70782;50.514;30.816;2023-11-18T05:53:19;39.70;34.30;19.90
50587;PMS7003;70782;50.514;30.816;2023-11-18T05:54:21;35.50;31.20;16.90
50587;PMS7003;70782;50.514;30.816;2023-11-18T05:55:24;36.90;32.00;18.00
50587;PMS7003;70782;50.514;30.816;2023-11-18T05:56:26;38.50;35.90;20.00
50587;PMS7003;70782;50.514;30.816;2023-11-18T05:57:29;38.60;33.20;19.70